Wetter & Webcam

Wetterdaten Diepholz (ETND)

METAR
Data not available. Military Control Zone (MCTR) is not permanently active (HX).

Sunrise (SR) / Sunset (SS)
04:02 / 19:01 UTC

Wetterdaten Bremen (EDDW)

METAR
METAR text: EDDW 110220Z AUTO 07003KT CAVOK 16/13 Q1024 Conditions at: EDDW (BREMEN , DE) observed 0220 UTC 11 August 2022 Temperature: 16.0°C (61°F) Dewpoint: 13.0°C (55°F) [RH = 82%] Pressure (altimeter): 30.24 inches Hg (1024.0 mb) Winds: from the ENE (70 degrees) at 3 MPH (3 knots; 1.5 m/s) Visibility: 6 or more miles (10+ km) Ceiling: ceiling and visibility are OK Clouds: unknown Weather: no significant weather observed at this time Forecast for: EDDW (BREMEN , DE) Text: EDDW 102300Z 1100/1124 06006KT CAVOK Forecast period: 0000 UTC 11 August 2022 to 0000 UTC 12 August 2022 Forecast type: FROM: standard forecast or significant change Winds: from the ENE (60 degrees) at 7 MPH (6 knots; 3.1 m/s) Visibility: 6 or more miles (10+ km) Ceiling: unknown Clouds: missing Weather: NSW  (no significant weather) Text: TEMPO 1100/1108 VRB03KT Forecast period: 0000 to 0800 UTC 11 August 2022 Forecast type: TEMPORARY: The following changes expected for less than half the time period Winds: variable direction winds at 3 MPH (3 knots; 1.5 m/s) Visibility: missing Ceiling: unknown Clouds: missing Weather: no significant weather forecast for this period

Copyright © 2022 Flugplatz Diepholz-Dümmerland

© 2022 Flugplatz Diepholz-Dümmerland